createdAt,value
2018-12-16T00:01:51.829Z,1.40
2018-12-16T00:04:21.913Z,1.40
2018-12-16T00:06:51.703Z,1.40
2018-12-16T00:09:21.934Z,1.30
2018-12-16T00:11:52.108Z,1.40
2018-12-16T00:14:22.109Z,1.40
2018-12-16T00:16:52.563Z,1.20
2018-12-16T00:19:22.780Z,1.10
2018-12-16T00:21:52.567Z,0.90
2018-12-16T00:24:22.469Z,1.00
2018-12-16T00:27:03.169Z,1.10
2018-12-16T00:29:33.539Z,1.30
2018-12-16T00:32:03.242Z,1.40
2018-12-16T00:34:33.547Z,1.40
2018-12-16T00:37:03.814Z,1.10
2018-12-16T00:39:34.215Z,1.00
2018-12-16T00:42:04.759Z,1.10
2018-12-16T00:44:34.284Z,0.90
2018-12-16T00:47:04.719Z,1.00
2018-12-16T00:49:34.475Z,1.10
2018-12-16T00:52:04.776Z,1.10
2018-12-16T00:54:34.939Z,1.00
2018-12-16T00:57:05.339Z,0.90
2018-12-16T00:59:35.570Z,1.00
2018-12-16T01:02:08.370Z,1.00
2018-12-16T01:04:38.507Z,1.10
2018-12-16T01:07:08.253Z,1.10
2018-12-16T01:09:39.292Z,0.90
2018-12-16T01:12:09.375Z,0.90
2018-12-16T01:14:39.219Z,0.90
2018-12-16T01:17:08.857Z,1.00
2018-12-16T01:19:38.531Z,1.00
2018-12-16T01:22:08.052Z,1.00
2018-12-16T01:24:38.561Z,1.00
2018-12-16T01:27:09.256Z,1.00
2018-12-16T01:29:38.977Z,0.90
2018-12-16T01:32:09.176Z,0.90
2018-12-16T01:34:39.460Z,0.90
2018-12-16T01:37:09.257Z,0.80
2018-12-16T01:39:39.651Z,0.60
2018-12-16T01:42:09.335Z,0.50
2018-12-16T01:44:39.540Z,0.60
2018-12-16T01:47:10.310Z,0.60
2018-12-16T01:49:40.261Z,0.80
2018-12-16T01:52:10.603Z,0.70
2018-12-16T01:54:41.224Z,0.80
2018-12-16T01:57:10.900Z,0.80
2018-12-16T01:59:40.635Z,0.90
2018-12-16T02:02:10.060Z,0.80
2018-12-16T02:04:39.693Z,0.80
2018-12-16T02:07:09.563Z,0.80
2018-12-16T02:09:40.419Z,0.70
2018-12-16T02:12:11.985Z,0.70
2018-12-16T02:14:42.688Z,0.70
2018-12-16T02:17:13.093Z,0.60
2018-12-16T02:19:43.180Z,0.50
2018-12-16T02:22:15.113Z,0.50
2018-12-16T02:24:45.513Z,0.70
2018-12-16T02:27:16.223Z,0.70
2018-12-16T02:29:46.347Z,0.60
2018-12-16T02:32:16.455Z,0.70
2018-12-16T02:34:47.534Z,0.70
2018-12-16T02:37:17.544Z,0.50
2018-12-16T02:39:47.576Z,0.50
2018-12-16T02:42:16.806Z,0.60
2018-12-16T02:44:46.265Z,0.60
2018-12-16T02:47:15.886Z,0.60
2018-12-16T02:49:45.688Z,0.60
2018-12-16T02:52:15.493Z,0.50
2018-12-16T02:54:46.230Z,0.50
2018-12-16T02:57:16.383Z,0.70
2018-12-16T02:59:46.225Z,0.70
2018-12-16T03:02:16.496Z,0.70
2018-12-16T03:04:47.104Z,0.70
2018-12-16T03:07:16.932Z,0.70
2018-12-16T03:09:46.312Z,0.70
2018-12-16T03:12:16.600Z,0.70
2018-12-16T03:14:46.581Z,0.50
2018-12-16T03:17:16.708Z,0.60
2018-12-16T03:19:47.229Z,0.50
2018-12-16T03:22:17.305Z,0.40
2018-12-16T03:24:47.269Z,0.40
2018-12-16T03:27:17.097Z,0.40
2018-12-16T03:29:47.020Z,0.40
2018-12-16T03:32:17.361Z,0.40
2018-12-16T03:34:47.085Z,0.30
2018-12-16T03:37:17.491Z,0.30
2018-12-16T03:39:47.777Z,0.30
2018-12-16T03:42:18.181Z,0.20
2018-12-16T03:44:48.738Z,0.20
2018-12-16T03:47:19.122Z,0.20
2018-12-16T03:49:49.080Z,0.10
2018-12-16T03:52:18.735Z,-0.10
2018-12-16T03:54:49.747Z,-0.10
2018-12-16T03:57:19.385Z,-0.20
2018-12-16T03:59:49.163Z,-0.20
2018-12-16T04:02:19.103Z,-0.20
2018-12-16T04:04:49.089Z,-0.30
2018-12-16T04:07:19.441Z,-0.30
2018-12-16T04:09:49.386Z,-0.40
2018-12-16T04:12:19.973Z,-0.60
2018-12-16T04:14:49.681Z,-0.70
2018-12-16T04:17:20.956Z,-0.70
2018-12-16T04:19:51.475Z,-0.80
2018-12-16T04:22:21.542Z,-0.80
2018-12-16T04:24:51.594Z,-0.70
2018-12-16T04:27:21.598Z,-0.70
2018-12-16T04:29:51.449Z,-0.90
2018-12-16T04:32:21.700Z,-0.80
2018-12-16T04:34:51.792Z,-0.80
2018-12-16T04:37:21.904Z,-0.90
2018-12-16T04:39:51.305Z,-0.90
2018-12-16T04:42:20.832Z,-1.10
2018-12-16T04:44:50.942Z,-1.10
2018-12-16T04:47:21.417Z,-1.10
2018-12-16T04:49:51.632Z,-1.00
2018-12-16T04:52:21.565Z,-1.00
2018-12-16T04:54:50.989Z,-1.00
2018-12-16T04:57:21.651Z,-1.00
2018-12-16T04:59:52.006Z,-1.00
2018-12-16T05:02:22.207Z,-1.10
2018-12-16T05:04:52.533Z,-1.10
2018-12-16T05:07:23.071Z,-1.10
2018-12-16T05:09:53.799Z,-1.10
2018-12-16T05:12:24.526Z,-1.10
2018-12-16T05:14:54.572Z,-1.10
2018-12-16T05:17:24.502Z,-1.10
2018-12-16T05:19:54.697Z,-1.20
2018-12-16T05:22:25.318Z,-1.30
2018-12-16T05:24:55.448Z,-1.30
2018-12-16T05:27:25.807Z,-1.20
2018-12-16T05:29:56.253Z,-1.20
2018-12-16T05:32:26.143Z,-1.30
2018-12-16T05:34:56.144Z,-1.30
2018-12-16T05:37:26.913Z,-1.30
2018-12-16T05:39:56.993Z,-1.40
2018-12-16T05:42:26.800Z,-1.50
2018-12-16T05:44:56.782Z,-1.50
2018-12-16T05:47:26.417Z,-1.50
2018-12-16T05:49:56.521Z,-1.50
2018-12-16T05:52:26.985Z,-1.50
2018-12-16T05:54:56.494Z,-1.50
2018-12-16T05:57:26.753Z,-1.50
2018-12-16T05:59:56.830Z,-1.50
2018-12-16T06:02:27.148Z,-1.60
2018-12-16T06:04:57.558Z,-1.60
2018-12-16T06:07:27.856Z,-1.70
2018-12-16T06:09:58.259Z,-1.60
2018-12-16T06:12:28.527Z,-1.70
2018-12-16T06:14:57.929Z,-1.70
2018-12-16T06:17:27.079Z,-1.70
2018-12-16T06:19:56.184Z,-1.70
2018-12-16T06:22:26.677Z,-1.70
2018-12-16T06:24:56.225Z,-1.70
2018-12-16T06:27:25.737Z,-1.80
2018-12-16T06:29:55.357Z,-1.80
2018-12-16T06:32:24.630Z,-1.70
2018-12-16T06:34:53.747Z,-1.80
2018-12-16T06:37:23.073Z,-1.70
2018-12-16T06:39:53.334Z,-1.70
2018-12-16T06:42:22.575Z,-1.50
2018-12-16T06:44:51.873Z,-1.50
2018-12-16T06:47:21.259Z,-1.50
2018-12-16T06:49:50.448Z,-1.40
2018-12-16T06:52:19.553Z,-1.40
2018-12-16T06:54:48.745Z,-1.30
2018-12-16T06:57:18.770Z,-1.20
2018-12-16T06:59:47.968Z,-1.10
2018-12-16T07:02:17.283Z,-1.00
2018-12-16T07:04:46.573Z,-1.00
2018-12-16T07:07:16.059Z,-1.00
2018-12-16T07:09:45.262Z,-1.00
2018-12-16T07:12:16.778Z,-0.80
2018-12-16T07:14:47.406Z,-0.70
2018-12-16T07:17:16.931Z,-0.60
2018-12-16T07:19:47.750Z,-0.50
2018-12-16T07:22:18.588Z,-0.50
2018-12-16T07:24:52.881Z,-0.40
2018-12-16T07:27:23.526Z,-0.30
2018-12-16T07:29:53.059Z,-0.30
2018-12-16T07:32:22.777Z,-0.40
2018-12-16T07:34:52.356Z,-0.40
2018-12-16T07:37:21.847Z,-0.40
2018-12-16T07:39:51.463Z,-0.30
2018-12-16T07:42:21.113Z,-0.20
2018-12-16T07:44:51.272Z,-0.20
2018-12-16T07:47:20.698Z,-0.20
2018-12-16T07:49:50.347Z,-0.20
2018-12-16T07:52:20.159Z,-0.30
2018-12-16T07:54:49.681Z,-0.30
2018-12-16T07:57:19.622Z,-0.20
2018-12-16T07:59:48.691Z,-0.20
2018-12-16T08:02:18.280Z,-0.40
2018-12-16T08:04:47.688Z,-0.40
2018-12-16T08:07:17.038Z,-0.30
2018-12-16T08:09:47.462Z,-0.10
2018-12-16T08:12:18.209Z,-0.10
2018-12-16T08:14:47.573Z,0.10
2018-12-16T08:17:16.826Z,0.10
2018-12-16T08:19:46.113Z,0.20
2018-12-16T08:22:15.429Z,0.30
2018-12-16T08:24:44.558Z,0.30
2018-12-16T08:27:13.858Z,0.00
2018-12-16T08:29:43.393Z,0.10
2018-12-16T08:32:12.620Z,0.30
2018-12-16T08:34:41.755Z,0.50
2018-12-16T08:37:11.129Z,0.40
2018-12-16T08:39:40.696Z,0.20
2018-12-16T08:42:09.929Z,0.30
2018-12-16T08:44:39.038Z,0.30
2018-12-16T08:47:08.348Z,0.50
2018-12-16T08:49:37.465Z,0.50
2018-12-16T08:52:06.728Z,0.20
2018-12-16T08:54:36.025Z,0.30
2018-12-16T08:57:05.376Z,0.40
2018-12-16T08:59:34.898Z,0.60
2018-12-16T09:02:04.235Z,0.80
2018-12-16T09:04:33.415Z,0.90
2018-12-16T09:07:02.684Z,0.80
2018-12-16T09:09:32.277Z,0.60
2018-12-16T09:12:01.747Z,0.70
2018-12-16T09:14:30.820Z,0.80
2018-12-16T09:17:00.303Z,1.00
2018-12-16T09:19:33.944Z,0.80
2018-12-16T09:22:03.465Z,0.80
2018-12-16T09:24:37.184Z,0.50
2018-12-16T09:27:06.338Z,0.50
2018-12-16T09:29:35.939Z,0.60
2018-12-16T09:32:06.799Z,0.60
2018-12-16T09:34:36.958Z,0.80
2018-12-16T09:37:07.285Z,0.70
2018-12-16T09:39:37.580Z,0.80
2018-12-16T09:42:08.728Z,0.80
2018-12-16T09:44:39.270Z,0.60
2018-12-16T09:47:09.146Z,0.70
2018-12-16T09:49:39.825Z,0.90
2018-12-16T09:52:10.119Z,1.00
2018-12-16T09:54:44.167Z,1.00
2018-12-16T09:57:13.289Z,1.00
2018-12-16T09:59:43.253Z,1.00
2018-12-16T10:02:13.501Z,1.00
2018-12-16T10:04:43.297Z,1.00
2018-12-16T10:07:13.678Z,0.90
2018-12-16T10:09:43.933Z,0.80
2018-12-16T10:12:14.534Z,0.80
2018-12-16T10:14:45.001Z,0.70
2018-12-16T10:17:14.379Z,0.60
2018-12-16T10:19:44.123Z,0.60
2018-12-16T10:22:14.228Z,0.60
2018-12-16T10:24:51.095Z,0.70
2018-12-16T10:27:17.074Z,0.80
2018-12-16T10:29:47.321Z,0.70
2018-12-16T10:32:16.859Z,0.70
2018-12-16T10:34:47.128Z,0.60
2018-12-16T10:37:17.792Z,0.70
2018-12-16T10:39:48.710Z,0.90
2018-12-16T10:42:19.568Z,0.80
2018-12-16T10:44:50.388Z,0.70
2018-12-16T10:47:20.724Z,0.70
2018-12-16T10:49:50.028Z,0.60
2018-12-16T10:52:19.910Z,0.50
2018-12-16T10:54:49.546Z,0.60
2018-12-16T10:57:20.002Z,0.90
2018-12-16T10:59:51.136Z,0.90
2018-12-16T11:02:21.829Z,0.90
2018-12-16T11:04:52.034Z,1.00
2018-12-16T11:07:21.826Z,1.00
2018-12-16T11:09:52.138Z,1.10
2018-12-16T11:12:22.258Z,1.20
2018-12-16T11:14:52.011Z,1.20
2018-12-16T11:17:21.941Z,1.30
2018-12-16T11:19:51.695Z,1.40
2018-12-16T11:22:22.282Z,1.40
2018-12-16T11:24:52.527Z,1.30
2018-12-16T11:27:23.453Z,1.30
2018-12-16T11:29:53.704Z,1.40
2018-12-16T11:32:23.302Z,1.40
2018-12-16T11:34:53.011Z,1.40
2018-12-16T11:37:23.027Z,1.30
2018-12-16T11:39:53.586Z,1.60
2018-12-16T11:42:24.229Z,2.00
2018-12-16T11:44:54.556Z,2.20
2018-12-16T11:47:24.578Z,2.40
2018-12-16T11:49:55.392Z,2.60
2018-12-16T11:52:25.090Z,2.80
2018-12-16T11:54:55.709Z,2.90
2018-12-16T11:57:25.393Z,2.90
2018-12-16T11:59:55.520Z,2.70
2018-12-16T12:02:25.437Z,2.60
2018-12-16T12:04:55.449Z,2.30
2018-12-16T12:07:25.901Z,2.20
2018-12-16T12:09:56.846Z,2.20
2018-12-16T12:12:27.575Z,1.70
2018-12-16T12:14:58.345Z,1.90
2018-12-16T12:17:28.780Z,2.20
2018-12-16T12:19:59.512Z,2.40
2018-12-16T12:22:30.618Z,2.30
2018-12-16T12:25:01.518Z,2.00
2018-12-16T12:27:31.995Z,2.30
2018-12-16T12:30:02.129Z,1.90
2018-12-16T12:32:32.170Z,2.20
2018-12-16T12:35:02.801Z,3.00
2018-12-16T12:37:32.993Z,3.60
2018-12-16T12:40:03.511Z,2.90
2018-12-16T12:42:33.985Z,2.30
2018-12-16T12:45:05.298Z,2.20
2018-12-16T12:47:35.499Z,2.00
2018-12-16T12:50:06.283Z,2.50
2018-12-16T12:52:37.585Z,3.20
2018-12-16T12:55:08.301Z,3.60
2018-12-16T12:57:39.340Z,4.60
2018-12-16T13:00:13.914Z,5.00
2018-12-16T13:02:44.665Z,5.40
2018-12-16T13:05:14.925Z,5.50
2018-12-16T13:07:45.456Z,6.00
2018-12-16T13:10:15.429Z,6.40
2018-12-16T13:12:45.341Z,6.10
2018-12-16T13:15:15.520Z,5.30
2018-12-16T13:17:46.032Z,4.50
2018-12-16T13:20:17.021Z,4.00
2018-12-16T13:22:47.536Z,3.40
2018-12-16T13:25:33.964Z,2.50
2018-12-16T13:28:02.180Z,2.00
2018-12-16T13:30:32.854Z,1.40
2018-12-16T13:33:03.647Z,1.20
2018-12-16T13:35:33.708Z,1.20
2018-12-16T13:38:04.136Z,0.90
2018-12-16T13:40:34.503Z,0.80
2018-12-16T13:43:04.609Z,0.60
2018-12-16T13:45:36.759Z,0.40
2018-12-16T13:48:08.155Z,0.40
2018-12-16T13:50:39.297Z,0.40
2018-12-16T13:53:10.224Z,0.60
2018-12-16T13:55:41.205Z,0.60
2018-12-16T13:58:12.624Z,0.60
2018-12-16T14:00:43.980Z,0.60
2018-12-16T14:03:14.593Z,0.50
2018-12-16T14:05:46.850Z,0.60
2018-12-16T14:08:18.308Z,0.70
2018-12-16T14:10:49.139Z,0.60
2018-12-16T14:13:19.807Z,0.60
2018-12-16T14:15:52.556Z,0.60
2018-12-16T14:18:24.671Z,0.60
2018-12-16T14:20:55.381Z,0.70
2018-12-16T14:24:29.140Z,0.70
2018-12-16T14:27:00.978Z,0.60
2018-12-16T14:29:32.946Z,0.40
2018-12-16T14:32:04.716Z,0.40
2018-12-16T14:34:34.885Z,0.50
2018-12-16T14:37:06.904Z,0.40
2018-12-16T14:39:38.061Z,0.40
2018-12-16T14:42:09.338Z,0.30
2018-12-16T14:44:40.953Z,0.30
2018-12-16T14:47:14.350Z,0.10
2018-12-16T14:49:45.612Z,0.10
2018-12-16T14:52:17.664Z,0.00
2018-12-16T14:54:48.505Z,0.10
2018-12-16T14:57:21.922Z,0.10
2018-12-16T14:59:52.853Z,0.10
2018-12-16T15:02:24.605Z,-0.10
2018-12-16T15:04:57.831Z,-0.10
2018-12-16T15:07:28.598Z,-0.20
2018-12-16T15:10:01.929Z,-0.10
2018-12-16T15:12:33.509Z,-0.20
2018-12-16T15:15:04.844Z,-0.20
2018-12-16T15:17:42.809Z,-0.30
2018-12-16T15:20:10.521Z,-0.30
2018-12-16T15:22:41.073Z,-0.40
2018-12-16T15:25:11.720Z,-0.50
2018-12-16T15:27:42.435Z,-0.60
2018-12-16T15:30:13.617Z,-0.60
2018-12-16T15:32:45.283Z,-0.60
2018-12-16T15:35:15.591Z,-0.60
2018-12-16T15:37:46.600Z,-0.70
2018-12-16T15:40:17.284Z,-0.80
2018-12-16T15:42:48.032Z,-0.80
2018-12-16T15:45:18.830Z,-0.80
2018-12-16T15:47:48.962Z,-0.80
2018-12-16T15:50:18.751Z,-0.80
2018-12-16T15:52:48.427Z,-0.90
2018-12-16T15:55:18.168Z,-0.90
2018-12-16T15:57:48.261Z,-1.00
2018-12-16T16:00:17.854Z,-1.00
2018-12-16T16:02:48.992Z,-1.00
2018-12-16T16:05:20.311Z,-1.00
2018-12-16T16:07:49.932Z,-0.90
2018-12-16T16:10:19.698Z,-1.00
2018-12-16T16:12:49.395Z,-1.00
2018-12-16T16:15:20.341Z,-1.00
2018-12-16T16:17:50.676Z,-1.10
2018-12-16T16:20:21.492Z,-1.10
2018-12-16T16:22:51.696Z,-1.20
2018-12-16T16:25:21.620Z,-1.20
2018-12-16T16:27:51.741Z,-1.20
2018-12-16T16:30:21.443Z,-1.20
2018-12-16T16:32:51.065Z,-1.20
2018-12-16T16:35:21.042Z,-1.20
2018-12-16T16:37:50.724Z,-1.30
2018-12-16T16:40:21.120Z,-1.30
2018-12-16T16:42:50.987Z,-1.40
2018-12-16T16:45:20.669Z,-1.40
2018-12-16T16:47:51.148Z,-1.50
2018-12-16T16:50:20.958Z,-1.60
2018-12-16T16:52:51.552Z,-1.60
2018-12-16T16:55:22.061Z,-1.60
2018-12-16T17:00:40.524Z,-1.60
2018-12-16T17:03:11.037Z,-1.60
2018-12-16T17:05:41.874Z,-1.60
2018-12-16T17:08:12.134Z,-1.70
2018-12-16T17:10:42.412Z,-1.70
2018-12-16T17:13:13.363Z,-1.80
2018-12-16T17:15:44.580Z,-1.90
2018-12-16T17:18:14.748Z,-1.80
2018-12-16T17:20:45.204Z,-1.80
2018-12-16T17:23:15.752Z,-1.70
2018-12-16T17:25:48.436Z,-1.70
2018-12-16T17:28:17.911Z,-1.80
2018-12-16T17:30:48.265Z,-1.70
2018-12-16T17:33:18.332Z,-1.70
2018-12-16T17:35:48.862Z,-1.60
2018-12-16T17:38:19.434Z,-1.60
2018-12-16T17:40:50.752Z,-1.60
2018-12-16T17:43:20.643Z,-1.70
2018-12-16T17:45:51.197Z,-1.60
2018-12-16T17:48:22.312Z,-1.60
2018-12-16T17:50:52.803Z,-1.60
2018-12-16T17:53:23.493Z,-1.50
2018-12-16T17:55:54.918Z,-1.50
2018-12-16T17:58:25.834Z,-1.50
2018-12-16T18:00:56.274Z,-1.50
2018-12-16T18:03:25.862Z,-1.50
2018-12-16T18:05:55.589Z,-1.50
2018-12-16T18:08:25.390Z,-1.50
2018-12-16T18:10:55.090Z,-1.50
2018-12-16T18:13:25.154Z,-1.50
2018-12-16T18:15:57.278Z,-1.40
2018-12-16T18:18:26.906Z,-1.50
2018-12-16T18:20:57.097Z,-1.50
2018-12-16T18:23:29.870Z,-1.50
2018-12-16T18:25:58.465Z,-1.50
2018-12-16T18:28:28.094Z,-1.60
2018-12-16T18:30:58.012Z,-1.60
2018-12-16T18:33:28.956Z,-1.70
2018-12-16T18:35:58.956Z,-1.70
2018-12-16T18:38:29.238Z,-1.70
2018-12-16T18:41:00.912Z,-1.70
2018-12-16T18:43:30.850Z,-1.70
2018-12-16T18:46:00.990Z,-1.70
2018-12-16T18:48:31.132Z,-1.70
2018-12-16T18:51:02.212Z,-1.80
2018-12-16T18:53:32.259Z,-1.80
2018-12-16T18:56:02.122Z,-1.90
2018-12-16T18:58:31.890Z,-1.90
2018-12-16T19:01:01.798Z,-2.00
2018-12-16T19:03:31.792Z,-1.90
2018-12-16T19:06:01.900Z,-1.80
2018-12-16T19:08:32.245Z,-1.90
2018-12-16T19:11:02.436Z,-1.90
2018-12-16T19:13:33.315Z,-1.90
2018-12-16T19:16:03.564Z,-2.00
2018-12-16T19:18:34.531Z,-2.00
2018-12-16T19:21:04.935Z,-2.10
2018-12-16T19:23:36.152Z,-2.10
2018-12-16T19:26:11.132Z,-2.20
2018-12-16T19:28:41.531Z,-2.10
2018-12-16T19:31:13.114Z,-2.10
2018-12-16T19:33:44.948Z,-2.10
2018-12-16T19:36:15.426Z,-2.10
2018-12-16T19:38:46.131Z,-2.10
2018-12-16T19:41:18.072Z,-2.10
2018-12-16T19:43:51.086Z,-2.10
2018-12-16T19:46:23.097Z,-2.10
2018-12-16T19:48:55.602Z,-2.10
2018-12-16T19:51:26.631Z,-2.20
2018-12-16T19:53:57.270Z,-2.10
2018-12-16T19:56:28.150Z,-2.10
2018-12-16T19:58:58.747Z,-2.10
2018-12-16T20:01:28.944Z,-2.10
2018-12-16T20:04:05.725Z,-2.20
2018-12-16T20:06:46.793Z,-2.10
2018-12-16T20:09:17.575Z,-1.90
2018-12-16T20:11:48.309Z,-1.90
2018-12-16T20:14:18.964Z,-1.90
2018-12-16T20:18:09.555Z,-1.90
2018-12-16T20:20:41.330Z,-1.90
2018-12-16T20:23:13.113Z,-1.90
2018-12-16T20:25:45.252Z,-1.90
2018-12-16T20:28:15.247Z,-1.80
2018-12-16T20:30:46.803Z,-1.60
2018-12-16T20:33:17.547Z,-1.60
2018-12-16T20:35:48.698Z,-1.60
2018-12-16T20:38:19.439Z,-1.50
2018-12-16T20:40:51.437Z,-1.50
2018-12-16T20:43:22.141Z,-1.40
2018-12-16T20:45:52.822Z,-1.20
2018-12-16T20:48:23.964Z,-1.30
2018-12-16T20:50:56.720Z,-1.40
2018-12-16T20:53:30.054Z,-1.50
2018-12-16T20:56:02.725Z,-1.40
2018-12-16T20:58:35.600Z,-1.40
2018-12-16T21:01:06.486Z,-1.40
2018-12-16T21:03:37.011Z,-1.30
2018-12-16T21:06:07.386Z,-1.40
2018-12-16T21:08:37.604Z,-1.50
2018-12-16T21:11:13.555Z,-1.50
2018-12-16T21:13:50.165Z,-1.50
2018-12-16T21:16:26.214Z,-1.50
2018-12-16T21:18:57.125Z,-1.50
2018-12-16T21:21:28.630Z,-1.60
2018-12-16T21:24:00.347Z,-1.60
2018-12-16T21:26:31.599Z,-1.60
2018-12-16T21:29:02.858Z,-1.50
2018-12-16T21:31:32.713Z,-1.50
2018-12-16T21:34:03.215Z,-1.50
2018-12-16T21:36:34.549Z,-1.50
2018-12-16T21:39:05.515Z,-1.50
2018-12-16T21:41:36.059Z,-1.60
2018-12-16T21:44:06.379Z,-1.60
2018-12-16T21:46:37.671Z,-1.60
2018-12-16T21:49:08.445Z,-1.60
2018-12-16T21:51:38.949Z,-1.60
2018-12-16T21:54:10.028Z,-1.50
2018-12-16T21:56:41.352Z,-1.50
2018-12-16T21:59:12.171Z,-1.50
2018-12-16T22:01:42.789Z,-1.60
2018-12-16T22:04:15.110Z,-1.70
2018-12-16T22:06:45.456Z,-1.60
2018-12-16T22:09:16.301Z,-1.60
2018-12-16T22:11:46.267Z,-1.60
2018-12-16T22:14:16.259Z,-1.50
2018-12-16T22:16:48.063Z,-1.40
2018-12-16T22:19:18.875Z,-1.40
2018-12-16T22:21:49.466Z,-1.40
2018-12-16T22:24:19.647Z,-1.40
2018-12-16T22:26:50.066Z,-1.40
2018-12-16T22:29:19.958Z,-1.40
2018-12-16T22:31:50.771Z,-1.40
2018-12-16T22:34:20.467Z,-1.30
2018-12-16T22:36:50.637Z,-1.20
2018-12-16T22:39:21.053Z,-1.20
2018-12-16T22:41:51.186Z,-1.10
2018-12-16T22:44:21.025Z,-1.20
2018-12-16T22:46:51.000Z,-1.20
2018-12-16T22:49:21.115Z,-1.20
2018-12-16T22:51:50.624Z,-1.20
2018-12-16T22:54:19.965Z,-1.20
2018-12-16T22:56:49.849Z,-1.20
2018-12-16T22:59:20.582Z,-1.10
2018-12-16T23:01:50.866Z,-1.10
2018-12-16T23:04:21.118Z,-1.00
2018-12-16T23:06:50.927Z,-1.00
2018-12-16T23:09:21.380Z,-1.00
2018-12-16T23:11:51.174Z,-1.00
2018-12-16T23:14:22.640Z,-1.00
2018-12-16T23:16:52.334Z,-0.90
2018-12-16T23:19:21.893Z,-0.90
2018-12-16T23:21:51.765Z,-0.80
2018-12-16T23:24:22.972Z,-0.70
2018-12-16T23:26:53.270Z,-0.60
2018-12-16T23:29:23.767Z,-0.60
2018-12-16T23:31:54.169Z,-0.50
2018-12-16T23:34:23.685Z,-0.30
2018-12-16T23:36:54.229Z,-0.40
2018-12-16T23:39:24.566Z,-0.30
2018-12-16T23:41:55.293Z,-0.20
2018-12-16T23:44:25.693Z,-0.30
2018-12-16T23:46:56.773Z,-0.30
2018-12-16T23:49:26.562Z,-0.30
2018-12-16T23:51:57.248Z,-0.10
2018-12-16T23:54:27.555Z,-0.20
2018-12-16T23:56:58.060Z,-0.30
2018-12-16T23:59:29.107Z,-0.30
